Time;durP1;ratioP1;P1;durP2;ratioP2;P2;SDS_P1;SDS_P2;PMS_P1;PMS_P2;Temp;Humidity;BMP_temperature;BMP_pressure;BME280_temperature;BME280_humidity;BME280_pressure;Samples;Min_cycle;Max_cycle;Signal;HPM_P1;HPM_P2
2022/12/01 02:59:47;;;;;;;49.20;27.50;;;;;;;0.69;100.00;99983.56;6282663;22;20215;-80
2022/12/01 03:02:51;;;;;;;49.10;27.50;;;;;;;0.71;100.00;99978.13;6264411;23;20231;-80
2022/12/01 03:05:38;;;;;;;48.80;27.07;;;;;;;0.75;100.00;99982.94;6240925;23;20688;-81
2022/12/01 03:08:19;;;;;;;47.33;27.37;;;;;;;0.70;100.00;99973.84;6242855;23;20237;-80
2022/12/01 03:11:05;;;;;;;49.03;27.97;;;;;;;0.73;100.00;99974.38;6218319;23;20227;-81
2022/12/01 03:14:00;;;;;;;48.13;27.73;;;;;;;0.72;100.00;99970.06;6216426;23;20205;-81
2022/12/01 03:16:49;;;;;;;49.43;28.57;;;;;;;0.74;100.00;99972.56;6239444;23;20260;-80
2022/12/01 03:19:43;;;;;;;48.90;27.07;;;;;;;0.81;100.00;99973.63;6195897;23;20232;-81
2022/12/01 03:22:17;;;;;;;47.27;27.63;;;;;;;0.78;100.00;99972.13;6209692;23;20213;-81
2022/12/01 03:24:46;;;;;;;48.20;27.47;;;;;;;0.86;100.00;99966.09;6214766;23;20201;-81
2022/12/01 03:27:17;;;;;;;48.97;27.73;;;;;;;0.87;100.00;99971.22;6215406;23;20216;-81
2022/12/01 03:29:48;;;;;;;47.17;27.17;;;;;;;0.87;100.00;99975.66;6240593;23;20256;-81
2022/12/01 03:32:26;;;;;;;50.87;29.33;;;;;;;0.78;100.00;99968.66;6215697;23;20592;-81
2022/12/01 03:35:00;;;;;;;46.67;27.63;;;;;;;0.83;100.00;99972.50;6239780;23;20200;-81
2022/12/01 03:37:44;;;;;;;46.33;27.97;;;;;;;0.87;100.00;99981.78;6241524;23;20231;-81
2022/12/01 03:40:16;;;;;;;50.20;28.73;;;;;;;0.77;100.00;99964.34;6241910;23;20205;-81
2022/12/01 03:42:49;;;;;;;52.60;28.27;;;;;;;0.76;100.00;99975.88;6217435;23;20235;-81
2022/12/01 03:49:30;;;;;;;45.27;27.70;;;;;;;0.75;100.00;99975.03;6267740;23;20220;-81
2022/12/01 03:52:22;;;;;;;50.27;28.87;;;;;;;0.73;100.00;99976.16;6215054;23;20208;-81
2022/12/01 03:55:13;;;;;;;46.43;27.10;;;;;;;0.83;100.00;99984.84;6236806;23;20200;-81
2022/12/01 03:57:45;;;;;;;48.37;27.50;;;;;;;0.70;100.00;99982.56;6237873;23;20205;-81
2022/12/01 04:00:13;;;;;;;49.57;28.67;;;;;;;0.71;100.00;99975.47;6258207;22;20264;-81
2022/12/01 04:02:40;;;;;;;49.77;27.77;;;;;;;0.70;100.00;99981.75;6295121;22;20200;-81
2022/12/01 04:05:08;;;;;;;50.70;28.10;;;;;;;0.69;100.00;99975.66;6247339;22;20204;-80
2022/12/01 04:07:38;;;;;;;48.10;27.80;;;;;;;0.56;100.00;99976.97;6273620;22;20202;-82
2022/12/01 04:10:07;;;;;;;47.63;28.07;;;;;;;0.60;100.00;99978.34;6298762;22;20204;-81
2022/12/01 04:12:34;;;;;;;48.17;28.53;;;;;;;0.59;100.00;99984.59;6297844;22;20204;-81
2022/12/01 04:15:06;;;;;;;46.53;28.00;;;;;;;0.56;100.00;99976.97;6296605;22;20207;-81
2022/12/01 04:17:35;;;;;;;51.13;29.13;;;;;;;0.62;100.00;99981.63;6271297;22;20646;-81
2022/12/01 04:20:05;;;;;;;50.47;27.83;;;;;;;0.56;100.00;99977.78;6269705;22;20207;-81
2022/12/01 04:22:33;;;;;;;48.37;28.50;;;;;;;0.52;100.00;99978.22;6272363;22;20211;-81
2022/12/01 04:25:00;;;;;;;50.40;27.73;;;;;;;0.60;100.00;99976.53;6298597;22;20223;-81
2022/12/01 04:27:27;;;;;;;48.90;28.00;;;;;;;0.60;100.00;99971.25;6272303;22;20204;-81
2022/12/01 04:29:55;;;;;;;50.33;29.13;;;;;;;0.80;100.00;99983.34;6296325;22;20203;-80
2022/12/01 04:32:22;;;;;;;49.50;28.60;;;;;;;0.75;100.00;99977.66;6269669;22;20199;-82
2022/12/01 04:34:49;;;;;;;51.10;28.40;;;;;;;0.66;100.00;99975.09;6296126;22;20223;-81
2022/12/01 04:37:17;;;;;;;49.33;28.53;;;;;;;0.66;100.00;99980.38;6246682;22;20199;-82
2022/12/01 04:39:45;;;;;;;50.80;28.03;;;;;;;0.64;100.00;99982.34;6299018;22;20231;-82
2022/12/01 04:42:13;;;;;;;53.13;28.83;;;;;;;0.81;100.00;99977.09;6223721;22;20215;-81
2022/12/01 04:44:40;;;;;;;48.00;28.80;;;;;;;0.76;100.00;99976.69;6299225;22;20215;-82
2022/12/01 04:47:10;;;;;;;49.10;28.17;;;;;;;0.78;100.00;99984.47;6258548;23;20220;-81
2022/12/01 04:49:37;;;;;;;47.57;28.00;;;;;;;0.81;100.00;99976.25;6261768;22;20204;-81
2022/12/01 04:52:05;;;;;;;47.07;27.37;;;;;;;0.78;100.00;99985.31;6269163;22;20205;-81
2022/12/01 04:54:32;;;;;;;46.30;28.40;;;;;;;0.78;100.00;99984.47;6264294;23;20223;-81
2022/12/01 04:56:59;;;;;;;47.93;27.87;;;;;;;0.85;100.00;99981.06;6236886;23;20295;-81
2022/12/01 04:59:26;;;;;;;49.47;28.43;;;;;;;0.91;100.00;99981.47;6261345;23;20200;-80
2022/12/01 05:01:53;;;;;;;52.53;29.73;;;;;;;0.81;100.00;99992.06;6238743;23;20210;-80
2022/12/01 05:04:24;;;;;;;48.33;28.40;;;;;;;0.91;100.00;99999.94;6241123;23;20200;-81
2022/12/01 05:06:54;;;;;;;48.23;27.87;;;;;;;0.76;100.00;99986.41;6269936;23;20208;-81
2022/12/01 05:09:25;;;;;;;49.50;28.00;;;;;;;0.77;100.00;99990.72;6245049;23;20236;-82
2022/12/01 05:11:54;;;;;;;48.37;27.50;;;;;;;0.87;100.00;99994.97;6197051;23;20212;-81
2022/12/01 05:14:21;;;;;;;48.17;28.00;;;;;;;0.92;100.00;99993.69;6244829;23;20209;-81
2022/12/01 05:16:56;;;;;;;45.77;26.80;;;;;;;0.94;100.00;100010.19;6244532;23;20204;-81
2022/12/01 05:22:10;;;;;;;49.60;28.13;;;;;;;0.95;100.00;100007.41;6248117;23;20196;-82
2022/12/01 05:24:39;;;;;;;47.20;27.37;;;;;;;0.99;100.00;100010.56;6246296;23;20205;-81
2022/12/01 05:27:09;;;;;;;50.20;28.40;;;;;;;1.02;100.00;100005.00;6220755;23;20197;-82
2022/12/01 05:29:38;;;;;;;49.00;28.10;;;;;;;0.88;100.00;100006.34;6245026;23;20196;-82
2022/12/01 05:32:05;;;;;;;48.90;27.80;;;;;;;0.96;100.00;100000.31;6241978;23;20214;-81
2022/12/01 05:34:34;;;;;;;50.53;28.83;;;;;;;0.96;100.00;100010.88;6244705;23;20209;-82
2022/12/01 05:37:02;;;;;;;48.27;27.77;;;;;;;1.00;100.00;100015.69;6220342;23;20208;-82
2022/12/01 05:39:29;;;;;;;49.27;29.10;;;;;;;0.99;100.00;100023.75;6271853;22;20204;-82
2022/12/01 05:41:57;;;;;;;45.50;26.70;;;;;;;1.00;100.00;100012.22;6220222;23;20265;-82
2022/12/01 05:44:36;;;;;;;48.13;29.47;;;;;;;1.13;100.00;100010.88;6196210;23;20207;-82
2022/12/01 05:47:05;;;;;;;48.33;27.80;;;;;;;1.02;100.00;100008.47;6221586;23;20208;-82
2022/12/01 05:49:57;;;;;;;49.33;28.50;;;;;;;0.91;100.00;100006.03;6212589;23;20185;-82
2022/12/01 05:52:34;;;;;;;50.27;28.63;;;;;;;0.96;100.00;100016.16;6195712;23;20204;-81
2022/12/01 05:55:05;;;;;;;50.73;28.73;;;;;;;0.99;100.00;100011.41;6246125;23;20216;-81
2022/12/01 05:57:33;;;;;;;52.07;29.00;;;;;;;0.78;100.00;100001.13;6215749;23;20193;-81
2022/12/01 06:00:00;;;;;;;49.07;28.87;;;;;;;0.74;100.00;100009.50;6244147;23;20225;-81
2022/12/01 06:02:37;;;;;;;51.10;28.27;;;;;;;0.76;100.00;100003.06;6267870;22;20223;-81
2022/12/01 06:05:06;;;;;;;49.67;28.10;;;;;;;0.76;100.00;100008.34;6244381;23;20227;-82
2022/12/01 06:07:34;;;;;;;51.77;28.87;;;;;;;0.79;100.00;100009.88;6225116;23;20212;-81
2022/12/01 06:10:05;;;;;;;52.50;28.57;;;;;;;0.70;100.00;100016.84;6212560;23;20213;-80
2022/12/01 06:12:34;;;;;;;52.30;29.63;;;;;;;0.88;100.00;100015.09;6211474;23;20211;-80
2022/12/01 19:25:37;;;;;;;42.97;27.33;;;;;;;1.05;100.00;99973.88;6302079;22;20204;-82
2022/12/01 19:28:13;;;;;;;44.93;28.47;;;;;;;0.99;100.00;99997.38;6251209;22;20226;-80
2022/12/01 19:30:42;;;;;;;48.23;31.63;;;;;;;0.80;100.00;99991.25;6248890;22;20238;-81
2022/12/01 19:33:15;;;;;;;53.80;33.77;;;;;;;0.81;100.00;99981.53;6251563;22;20204;-81
2022/12/01 19:35:43;;;;;;;46.97;28.17;;;;;;;0.66;100.00;99983.00;6252028;22;20212;-81
2022/12/01 19:38:13;;;;;;;79.87;47.53;;;;;;;0.78;100.00;99990.59;6273295;22;20248;-81
2022/12/01 19:40:44;;;;;;;70.37;42.03;;;;;;;0.75;100.00;99996.13;6245679;23;20200;-82
2022/12/01 19:43:12;;;;;;;51.53;30.17;;;;;;;0.80;100.00;99991.25;6245631;23;20205;-82
2022/12/01 19:45:40;;;;;;;63.33;37.37;;;;;;;0.76;100.00;99997.78;6246040;23;20645;-82
2022/12/01 19:48:07;;;;;;;49.57;29.67;;;;;;;0.70;100.00;99993.09;6243636;22;20224;-82
2022/12/01 19:50:41;;;;;;;47.87;28.17;;;;;;;0.77;100.00;99998.63;6247438;23;20188;-82
2022/12/01 19:53:09;;;;;;;78.93;46.47;;;;;;;0.69;100.00;99994.09;6219626;23;20205;-81
2022/12/01 19:55:37;;;;;;;73.17;44.20;;;;;;;0.74;100.00;99988.38;6242372;23;20231;-81
2022/12/01 19:58:04;;;;;;;51.50;31.17;;;;;;;0.65;100.00;99995.38;6235289;23;20212;-80
2022/12/01 20:00:31;;;;;;;42.80;25.77;;;;;;;0.65;100.00;99991.91;6214692;23;20204;-82
2022/12/01 20:03:00;;;;;;;41.10;25.13;;;;;;;0.41;100.00;99995.91;6242349;23;20200;-81
2022/12/01 20:05:31;;;;;;;44.10;27.50;;;;;;;0.29;100.00;100002.34;6244655;23;20209;-81
2022/12/01 20:07:58;;;;;;;38.97;25.20;;;;;;;0.35;100.00;99995.66;6204831;22;20188;-79
2022/12/01 20:10:26;;;;;;;41.17;25.60;;;;;;;0.38;100.00;100005.91;6220220;23;20215;-81
2022/12/01 20:12:56;;;;;;;41.60;25.93;;;;;;;0.31;100.00;99996.94;6221784;23;20192;-81
2022/12/01 20:15:23;;;;;;;48.37;31.70;;;;;;;0.25;100.00;99997.50;6192302;23;20683;-81
2022/12/01 20:17:52;;;;;;;48.23;30.50;;;;;;;0.34;100.00;99996.63;6217676;23;20224;-81
2022/12/01 20:20:20;;;;;;;45.33;31.10;;;;;;;0.21;100.00;99993.50;6213865;22;20205;-80
2022/12/01 20:22:48;;;;;;;43.27;28.43;;;;;;;0.18;100.00;100001.69;6212859;23;20221;-81
2022/12/01 20:25:16;;;;;;;42.13;26.77;;;;;;;0.24;100.00;99998.47;6222690;23;20237;-81
2022/12/01 20:27:44;;;;;;;41.87;26.40;;;;;;;0.17;100.00;99998.22;6176180;23;20206;-81
2022/12/01 20:30:12;;;;;;;38.93;25.63;;;;;;;0.10;100.00;99991.88;6188219;23;20228;-81
2022/12/01 20:32:40;;;;;;;38.57;24.67;;;;;;;0.11;100.00;99998.81;6268440;23;20205;-81
2022/12/01 20:35:14;;;;;;;38.40;25.33;;;;;;;0.07;100.00;100001.88;6264443;23;20223;-81
2022/12/01 20:37:42;;;;;;;38.90;25.00;;;;;;;-0.01;100.00;99998.16;6229981;23;20201;-81
2022/12/01 20:40:11;;;;;;;39.27;26.07;;;;;;;-0.02;100.00;100004.41;6219219;23;20215;-81
2022/12/01 20:42:39;;;;;;;37.53;25.37;;;;;;;0.00;100.00;100001.63;6244364;23;20200;-81
2022/12/01 20:45:07;;;;;;;37.87;24.07;;;;;;;-0.03;100.00;100007.16;6244433;23;20208;-82
2022/12/01 20:47:44;;;;;;;40.10;24.67;;;;;;;0.10;100.00;100006.84;6221161;23;20193;-82
2022/12/01 20:50:50;;;;;;;38.07;24.17;;;;;;;-0.09;100.00;100002.44;6195553;23;20200;-82
2022/12/01 20:53:22;;;;;;;37.80;25.13;;;;;;;-0.07;100.00;100001.34;6211516;23;20193;-82
2022/12/01 20:55:53;;;;;;;37.73;24.23;;;;;;;-0.12;100.00;100006.22;6184625;23;20210;-82
2022/12/01 20:58:22;;;;;;;35.40;24.03;;;;;;;-0.05;100.00;100011.75;6183417;23;20206;-81
2022/12/01 21:00:50;;;;;;;35.97;23.90;;;;;;;-0.11;100.00;100001.78;6184608;23;20206;-82
2022/12/01 21:03:18;;;;;;;35.47;24.57;;;;;;;0.00;100.00;100009.53;6186632;23;20194;-83
2022/12/01 21:06:29;;;;;;;36.17;23.97;;;;;;;-0.07;100.00;100011.88;6093759;23;20295;-83
2022/12/01 23:59:12;;;;;;;38.97;23.87;;;;;;;-0.65;100.00;99955.88;6255149;22;20224;-80
